createdAt,value
2019-02-10T00:01:14.371Z,21.40
2019-02-10T00:04:09.032Z,21.40
2019-02-10T00:07:04.410Z,21.40
2019-02-10T00:09:58.989Z,21.40
2019-02-10T00:13:30.396Z,21.40
2019-02-10T00:16:26.095Z,21.30
2019-02-10T00:19:20.946Z,21.30
2019-02-10T00:22:16.613Z,21.30
2019-02-10T00:25:11.276Z,21.30
2019-02-10T00:28:05.852Z,21.30
2019-02-10T00:31:00.394Z,21.30
2019-02-10T00:33:54.993Z,21.30
2019-02-10T00:36:49.332Z,21.30
2019-02-10T00:39:43.691Z,21.30
2019-02-10T00:42:39.985Z,21.30
2019-02-10T00:45:34.632Z,21.30
2019-02-10T00:48:28.783Z,21.20
2019-02-10T00:51:23.656Z,21.20
2019-02-10T00:54:18.309Z,21.20
2019-02-10T00:57:13.051Z,21.20
2019-02-10T01:00:08.018Z,21.20
2019-02-10T01:03:02.963Z,21.20
2019-02-10T01:05:57.539Z,21.20
2019-02-10T01:08:53.720Z,21.20
2019-02-10T01:11:48.263Z,21.20
2019-02-10T01:14:42.786Z,21.20
2019-02-10T01:17:37.405Z,21.20
2019-02-10T01:20:32.091Z,21.10
2019-02-10T01:23:26.445Z,21.20
2019-02-10T01:26:20.775Z,21.10
2019-02-10T01:29:15.331Z,21.10
2019-02-10T01:32:10.669Z,21.10
2019-02-10T01:35:04.945Z,21.10
2019-02-10T01:37:59.636Z,21.10
2019-02-10T01:40:55.555Z,21.10
2019-02-10T01:43:51.855Z,21.00
2019-02-10T01:46:45.970Z,21.00
2019-02-10T01:49:40.202Z,21.00
2019-02-10T01:52:34.761Z,21.00
2019-02-10T01:55:28.904Z,21.00
2019-02-10T01:58:23.416Z,21.00
2019-02-10T02:01:19.045Z,21.00
2019-02-10T02:04:13.536Z,21.00
2019-02-10T02:07:07.896Z,21.10
2019-02-10T02:10:02.856Z,21.10
2019-02-10T02:12:57.719Z,21.10
2019-02-10T02:15:52.310Z,21.10
2019-02-10T02:18:46.681Z,21.10
2019-02-10T02:21:42.291Z,21.10
2019-02-10T02:24:36.574Z,21.10
2019-02-10T02:27:31.005Z,21.10
2019-02-10T02:30:25.507Z,21.10
2019-02-10T02:33:20.330Z,21.10
2019-02-10T02:36:14.781Z,21.10
2019-02-10T02:39:09.175Z,21.10
2019-02-10T02:42:03.632Z,21.10
2019-02-10T02:44:58.395Z,21.10
2019-02-10T02:47:53.290Z,21.10
2019-02-10T02:50:47.872Z,21.10
2019-02-10T02:53:42.210Z,21.10
2019-02-10T02:56:36.577Z,21.10
2019-02-10T02:59:30.835Z,21.10
2019-02-10T03:02:25.466Z,21.10
2019-02-10T03:05:19.781Z,21.10
2019-02-10T03:08:14.085Z,21.10
2019-02-10T03:11:08.520Z,21.10
2019-02-10T03:14:04.422Z,21.10
2019-02-10T03:16:58.538Z,21.10
2019-02-10T03:19:53.056Z,21.20
2019-02-10T03:22:47.795Z,21.20
2019-02-10T03:25:42.361Z,21.20
2019-02-10T03:28:37.784Z,21.20
2019-02-10T03:31:32.477Z,21.20
2019-02-10T03:34:26.611Z,21.20
2019-02-10T03:37:26.830Z,21.20
2019-02-10T03:40:17.248Z,21.20
2019-02-10T03:43:11.575Z,21.20
2019-02-10T03:46:06.360Z,21.20
2019-02-10T03:49:00.885Z,21.20
2019-02-10T03:51:55.287Z,21.20
2019-02-10T03:54:49.911Z,21.20
2019-02-10T03:57:45.053Z,21.20
2019-02-10T04:00:41.998Z,21.20
2019-02-10T04:03:36.936Z,21.30
2019-02-10T04:06:34.218Z,21.30
2019-02-10T04:09:29.171Z,21.20
2019-02-10T04:12:24.461Z,21.30
2019-02-10T04:15:21.723Z,21.30
2019-02-10T04:18:19.457Z,21.30
2019-02-10T04:21:15.336Z,21.30
2019-02-10T04:24:10.172Z,21.30
2019-02-10T04:27:08.008Z,21.30
2019-02-10T04:30:06.159Z,21.30
2019-02-10T04:33:01.722Z,21.40
2019-02-10T04:35:56.743Z,21.40
2019-02-10T04:38:53.925Z,21.40
2019-02-10T04:41:50.912Z,21.50
2019-02-10T04:44:45.600Z,21.50
2019-02-10T04:47:40.632Z,21.50
2019-02-10T04:50:38.396Z,21.50
2019-02-10T04:53:33.560Z,21.50
2019-02-10T04:56:28.692Z,21.60
2019-02-10T04:59:23.785Z,21.50
2019-02-10T05:02:18.668Z,21.60
2019-02-10T05:05:13.430Z,21.60
2019-02-10T05:08:08.863Z,21.60
2019-02-10T05:11:03.472Z,21.60
2019-02-10T05:13:58.812Z,21.60
2019-02-10T05:16:53.908Z,21.70
2019-02-10T05:19:49.303Z,21.60
2019-02-10T05:22:44.266Z,21.60
2019-02-10T05:25:40.660Z,21.70
2019-02-10T05:28:36.191Z,21.70
2019-02-10T05:31:31.793Z,21.70
2019-02-10T05:34:27.586Z,21.60
2019-02-10T05:37:22.959Z,21.70
2019-02-10T05:40:18.288Z,21.60
2019-02-10T05:43:14.813Z,21.70
2019-02-10T05:46:12.485Z,21.60
2019-02-10T05:49:07.413Z,21.70
2019-02-10T05:52:02.676Z,21.60
2019-02-10T05:54:57.735Z,21.70
2019-02-10T05:57:53.914Z,21.70
2019-02-10T06:00:49.203Z,21.70
2019-02-10T06:03:44.704Z,21.70
2019-02-10T06:06:40.583Z,21.60
2019-02-10T06:09:36.135Z,21.70
2019-02-10T06:12:30.341Z,21.60
2019-02-10T06:15:25.559Z,21.70
2019-02-10T06:18:20.469Z,21.70
2019-02-10T06:21:15.065Z,21.70
2019-02-10T06:24:10.227Z,21.70
2019-02-10T06:27:04.956Z,21.70
2019-02-10T06:30:00.292Z,21.70
2019-02-10T06:32:54.831Z,21.70
2019-02-10T06:35:50.047Z,21.80
2019-02-10T06:38:44.840Z,21.80
2019-02-10T06:41:39.876Z,21.80
2019-02-10T06:44:34.765Z,21.80
2019-02-10T06:47:30.194Z,21.80
2019-02-10T06:50:25.470Z,21.80
2019-02-10T06:53:20.792Z,21.80
2019-02-10T06:56:15.794Z,21.70
2019-02-10T06:59:14.577Z,21.70
2019-02-10T07:02:27.703Z,21.70
2019-02-10T07:05:23.117Z,21.70
2019-02-10T07:08:18.117Z,21.70
2019-02-10T07:11:13.017Z,21.70
2019-02-10T07:14:10.593Z,21.70
2019-02-10T07:17:46.648Z,21.80
2019-02-10T07:20:49.433Z,21.80
2019-02-10T07:24:01.361Z,21.80
2019-02-10T07:26:59.771Z,21.80
2019-02-10T07:30:36.353Z,21.80
2019-02-10T07:34:05.778Z,21.80
2019-02-10T07:37:31.741Z,21.80
2019-02-10T07:40:55.887Z,21.80
2019-02-10T07:44:37.630Z,21.70
2019-02-10T07:47:59.397Z,21.70
2019-02-10T07:51:32.850Z,21.70
2019-02-10T07:54:42.570Z,21.70
2019-02-10T07:58:08.948Z,21.70
2019-02-10T08:01:36.735Z,21.80
2019-02-10T08:05:36.398Z,21.80
2019-02-10T08:09:16.597Z,21.80
2019-02-10T08:12:35.768Z,21.80
2019-02-10T08:15:55.134Z,21.80
2019-02-10T08:18:59.651Z,21.80
2019-02-10T08:22:35.150Z,21.80
2019-02-10T08:25:38.317Z,21.80
2019-02-10T08:28:49.938Z,21.80
2019-02-10T08:32:38.456Z,21.80
2019-02-10T08:36:13.670Z,21.80
2019-02-10T08:39:44.414Z,21.80
2019-02-10T08:43:03.357Z,21.80
2019-02-10T08:46:11.542Z,21.90
2019-02-10T08:49:27.673Z,21.90
2019-02-10T08:52:40.238Z,21.90
2019-02-10T08:55:29.175Z,21.80
2019-02-10T09:01:15.511Z,21.90
2019-02-10T09:04:11.552Z,21.90
2019-02-10T09:07:05.945Z,21.80
2019-02-10T09:10:00.989Z,21.80
2019-02-10T09:12:56.207Z,21.80
2019-02-10T09:15:50.856Z,21.80
2019-02-10T09:18:47.572Z,21.80
2019-02-10T09:21:42.748Z,21.80
2019-02-10T09:24:39.281Z,21.80
2019-02-10T09:27:34.009Z,21.70
2019-02-10T09:30:22.679Z,21.70
2019-02-10T09:33:17.141Z,21.70
2019-02-10T09:36:11.676Z,21.80
2019-02-10T09:39:11.000Z,21.80
2019-02-10T09:42:04.239Z,21.80
2019-02-10T09:44:59.225Z,21.80
2019-02-10T09:47:54.466Z,21.80
2019-02-10T09:50:49.335Z,21.80
2019-02-10T09:53:44.204Z,21.80
2019-02-10T09:56:39.072Z,21.90
2019-02-10T09:59:34.069Z,21.80
2019-02-10T10:02:28.801Z,21.80
2019-02-10T10:05:23.581Z,21.80
2019-02-10T10:08:18.571Z,21.80
2019-02-10T10:11:13.427Z,21.80
2019-02-10T10:14:07.939Z,21.80
2019-02-10T10:17:03.199Z,21.80
2019-02-10T10:19:57.751Z,21.80
2019-02-10T10:22:56.638Z,21.80
2019-02-10T10:25:51.294Z,21.80
2019-02-10T10:28:46.347Z,21.80
2019-02-10T10:31:40.811Z,21.80
2019-02-10T10:34:35.593Z,21.80
2019-02-10T10:37:31.135Z,21.80
2019-02-10T10:40:26.029Z,21.80
2019-02-10T10:43:20.729Z,21.90
2019-02-10T10:46:16.030Z,21.80
2019-02-10T10:49:10.197Z,21.80
2019-02-10T10:52:04.857Z,21.80
2019-02-10T11:00:42.863Z,21.80
2019-02-10T11:03:37.570Z,21.80
2019-02-10T11:09:18.434Z,21.90
2019-02-10T11:12:13.056Z,21.90
2019-02-10T11:15:07.540Z,21.90
2019-02-10T11:18:02.367Z,21.90
2019-02-10T11:20:57.070Z,21.90
2019-02-10T11:23:51.241Z,21.90
2019-02-10T11:26:46.102Z,21.90
2019-02-10T11:29:40.679Z,21.90
2019-02-10T11:32:35.148Z,21.90
2019-02-10T11:35:29.285Z,21.90
2019-02-10T11:38:23.444Z,21.90
2019-02-10T11:41:18.270Z,21.90
2019-02-10T11:44:11.808Z,21.90
2019-02-10T11:47:06.108Z,21.90
2019-02-10T11:50:00.955Z,21.90
2019-02-10T11:52:55.817Z,21.90
2019-02-10T11:55:50.685Z,21.90
2019-02-10T11:58:48.112Z,21.90
2019-02-10T12:01:44.377Z,22.00
2019-02-10T12:04:38.644Z,21.90
2019-02-10T12:07:32.695Z,22.00
2019-02-10T12:10:26.932Z,21.90
2019-02-10T12:13:21.635Z,22.00
2019-02-10T12:16:16.264Z,22.00
2019-02-10T12:19:10.925Z,22.00
2019-02-10T12:22:05.056Z,21.90
2019-02-10T12:24:59.603Z,22.00
2019-02-10T12:27:54.453Z,22.00
2019-02-10T12:30:49.010Z,22.00
2019-02-10T12:33:44.843Z,22.00
2019-02-10T12:36:40.431Z,22.00
2019-02-10T12:39:35.827Z,22.00
2019-02-10T12:42:30.326Z,22.00
2019-02-10T12:45:25.621Z,22.00
2019-02-10T12:48:20.080Z,22.00
2019-02-10T12:51:15.077Z,22.00
2019-02-10T12:54:10.392Z,22.00
2019-02-10T12:57:05.093Z,22.00
2019-02-10T13:00:00.250Z,22.00
2019-02-10T13:02:54.868Z,22.00
2019-02-10T13:05:49.694Z,22.00
2019-02-10T13:08:44.286Z,22.00
2019-02-10T13:11:39.117Z,22.00
2019-02-10T13:14:34.672Z,22.00
2019-02-10T13:17:29.221Z,22.00
2019-02-10T13:20:23.558Z,22.00
2019-02-10T13:23:18.509Z,22.00
2019-02-10T13:26:12.941Z,22.00
2019-02-10T13:29:07.522Z,22.00
2019-02-10T13:32:02.337Z,22.00
2019-02-10T13:34:57.138Z,22.00
2019-02-10T13:37:51.495Z,22.00
2019-02-10T13:40:44.595Z,22.00
2019-02-10T13:43:38.068Z,22.00
2019-02-10T13:46:32.522Z,22.00
2019-02-10T13:49:26.802Z,22.00
2019-02-10T13:52:21.350Z,22.00
2019-02-10T13:55:15.983Z,22.00
2019-02-10T13:58:10.364Z,22.00
2019-02-10T14:01:04.859Z,22.00
2019-02-10T14:03:59.430Z,22.00
2019-02-10T14:06:54.413Z,22.00
2019-02-10T14:09:49.470Z,22.10
2019-02-10T14:12:43.987Z,22.00
2019-02-10T14:15:38.355Z,22.00
2019-02-10T14:18:33.066Z,22.10
2019-02-10T14:21:27.613Z,22.00
2019-02-10T14:24:22.752Z,22.10
2019-02-10T14:27:17.419Z,22.00
2019-02-10T14:30:14.104Z,22.00
2019-02-10T14:33:12.512Z,22.00
2019-02-10T14:36:07.108Z,22.00
2019-02-10T14:39:01.389Z,22.00
2019-02-10T14:41:57.601Z,22.00
2019-02-10T14:44:52.044Z,22.00
2019-02-10T14:47:47.814Z,22.10
2019-02-10T14:50:42.384Z,22.10
2019-02-10T14:53:36.693Z,22.00
2019-02-10T14:56:30.811Z,22.10
2019-02-10T14:59:25.590Z,22.00
2019-02-10T15:02:20.366Z,22.00
2019-02-10T15:05:15.336Z,22.00
2019-02-10T15:08:09.863Z,22.00
2019-02-10T15:11:04.164Z,22.00
2019-02-10T15:13:58.678Z,22.00
2019-02-10T15:16:52.896Z,22.00
2019-02-10T15:19:47.425Z,22.00
2019-02-10T15:22:41.749Z,22.00
2019-02-10T15:25:36.019Z,22.00
2019-02-10T15:28:30.666Z,22.00
2019-02-10T15:31:25.240Z,22.00
2019-02-10T15:34:17.623Z,22.00
2019-02-10T15:37:12.447Z,22.00
2019-02-10T15:40:07.127Z,22.00
2019-02-10T15:43:01.727Z,22.00
2019-02-10T15:45:55.867Z,22.00
2019-02-10T15:48:50.004Z,22.00
2019-02-10T15:51:44.333Z,22.00
2019-02-10T15:54:38.447Z,22.00
2019-02-10T15:57:32.775Z,22.00
2019-02-10T16:00:28.542Z,22.00
2019-02-10T16:03:24.399Z,22.00
2019-02-10T16:06:18.657Z,22.00
2019-02-10T16:09:13.024Z,22.00
2019-02-10T16:12:07.617Z,22.00
2019-02-10T16:15:02.374Z,22.00
2019-02-10T16:20:47.402Z,22.00
2019-02-10T16:23:41.949Z,22.00
2019-02-10T16:26:36.700Z,21.90
2019-02-10T16:29:30.901Z,21.90
2019-02-10T16:32:25.060Z,21.90
2019-02-10T16:35:19.955Z,21.90
2019-02-10T16:38:14.365Z,21.90
2019-02-10T16:41:08.739Z,21.90
2019-02-10T16:44:03.373Z,21.90
2019-02-10T16:46:57.999Z,21.90
2019-02-10T16:49:52.866Z,21.90
2019-02-10T16:52:47.985Z,21.90
2019-02-10T16:55:42.541Z,21.90
2019-02-10T16:58:37.495Z,21.90
2019-02-10T17:01:31.944Z,21.90
2019-02-10T17:04:26.582Z,21.90
2019-02-10T17:07:22.260Z,21.90
2019-02-10T17:10:17.268Z,21.90
2019-02-10T17:13:11.963Z,21.90
2019-02-10T17:16:06.352Z,21.90
2019-02-10T17:21:55.220Z,21.90
2019-02-10T17:24:49.721Z,21.90
2019-02-10T17:27:44.225Z,21.90
2019-02-10T17:30:40.118Z,21.90
2019-02-10T17:33:35.003Z,21.90
2019-02-10T17:36:29.295Z,21.90
2019-02-10T17:39:25.990Z,21.90
2019-02-10T17:42:20.622Z,21.90
2019-02-10T17:45:15.033Z,21.90
2019-02-10T17:48:09.507Z,21.90
2019-02-10T17:51:04.657Z,21.90
2019-02-10T17:54:00.451Z,21.90
2019-02-10T17:56:55.070Z,21.90
2019-02-10T17:59:49.944Z,21.90
2019-02-10T18:02:44.779Z,21.90
2019-02-10T18:05:40.319Z,21.90
2019-02-10T18:08:34.020Z,21.90
2019-02-10T18:11:31.142Z,21.80
2019-02-10T18:14:54.550Z,21.80
2019-02-10T18:18:13.373Z,21.90
2019-02-10T18:21:45.250Z,21.80
2019-02-10T18:24:56.208Z,21.80
2019-02-10T18:28:05.324Z,21.80
2019-02-10T18:31:20.703Z,21.80
2019-02-10T18:34:25.378Z,21.80
2019-02-10T18:37:46.696Z,21.80
2019-02-10T18:41:04.931Z,21.80
2019-02-10T18:44:23.129Z,21.80
2019-02-10T18:50:27.129Z,21.80
2019-02-10T18:53:37.627Z,21.80
2019-02-10T18:56:55.864Z,21.80
2019-02-10T19:00:10.895Z,21.80
2019-02-10T19:03:12.254Z,21.80
2019-02-10T19:06:40.394Z,21.70
2019-02-10T19:09:51.133Z,21.70
2019-02-10T19:13:22.349Z,21.70
2019-02-10T19:16:32.977Z,21.70
2019-02-10T19:19:54.987Z,21.70
2019-02-10T19:23:09.010Z,21.70
2019-02-10T19:26:22.212Z,21.70
2019-02-10T19:29:34.668Z,21.70
2019-02-10T19:32:46.613Z,21.70
2019-02-10T19:35:51.412Z,21.70
2019-02-10T19:39:04.602Z,21.70
2019-02-10T19:42:14.983Z,21.70
2019-02-10T19:45:17.533Z,21.60
2019-02-10T19:48:28.285Z,21.70
2019-02-10T19:51:40.679Z,21.70
2019-02-10T19:54:53.058Z,21.70
2019-02-10T19:58:08.236Z,21.60
2019-02-10T20:01:38.856Z,21.60
2019-02-10T20:04:54.241Z,21.60
2019-02-10T20:08:10.331Z,21.60
2019-02-10T20:11:22.844Z,21.60
2019-02-10T20:14:33.783Z,21.60
2019-02-10T20:17:37.922Z,21.60
2019-02-10T20:20:50.129Z,21.60
2019-02-10T20:24:05.484Z,21.60
2019-02-10T20:27:16.453Z,21.60
2019-02-10T20:30:39.584Z,21.60
2019-02-10T20:34:07.089Z,21.60
2019-02-10T20:37:22.164Z,21.60
2019-02-10T20:40:32.932Z,21.60
2019-02-10T20:43:34.784Z,21.60
2019-02-10T20:47:02.139Z,21.50
2019-02-10T20:50:17.569Z,21.50
2019-02-10T20:53:29.663Z,21.60
2019-02-10T20:56:33.385Z,21.50
2019-02-10T20:59:34.387Z,21.60
2019-02-10T21:02:40.541Z,21.60
2019-02-10T21:05:52.579Z,21.60
2019-02-10T21:09:21.347Z,21.50
2019-02-10T21:12:43.217Z,21.50
2019-02-10T21:15:52.613Z,21.50
2019-02-10T21:18:54.404Z,21.50
2019-02-10T21:25:26.680Z,21.50
2019-02-10T21:28:26.231Z,21.50
2019-02-10T21:31:53.796Z,21.50
2019-02-10T21:35:07.296Z,21.50
2019-02-10T21:38:22.730Z,21.40
2019-02-10T21:41:53.469Z,21.40
2019-02-10T21:45:11.949Z,21.50
2019-02-10T21:48:21.971Z,21.40
2019-02-10T21:51:15.946Z,21.40
2019-02-10T21:54:09.911Z,21.50
2019-02-10T21:57:03.907Z,21.50
2019-02-10T21:59:57.775Z,21.40
2019-02-10T22:02:52.126Z,21.40
2019-02-10T22:05:46.337Z,21.40
2019-02-10T22:08:40.409Z,21.40
2019-02-10T22:11:34.819Z,21.40
2019-02-10T22:14:28.823Z,21.40
2019-02-10T22:17:23.164Z,21.40
2019-02-10T22:20:17.455Z,21.40
2019-02-10T22:23:11.949Z,21.40
2019-02-10T22:26:06.426Z,21.40
2019-02-10T22:29:00.872Z,21.30
2019-02-10T22:31:55.416Z,21.30
2019-02-10T22:34:49.927Z,21.40
2019-02-10T22:37:44.374Z,21.30
2019-02-10T22:40:38.449Z,21.30
2019-02-10T22:43:32.877Z,21.30
2019-02-10T22:46:27.225Z,21.30
2019-02-10T22:49:21.474Z,21.30
2019-02-10T22:52:15.898Z,21.30
2019-02-10T22:55:10.280Z,21.30
2019-02-10T22:58:04.942Z,21.30
2019-02-10T23:01:05.171Z,21.30
2019-02-10T23:03:59.661Z,21.30
2019-02-10T23:06:53.714Z,21.20
2019-02-10T23:09:47.687Z,21.20
2019-02-10T23:12:41.812Z,21.20
2019-02-10T23:15:36.143Z,21.20
2019-02-10T23:18:30.284Z,21.20
2019-02-10T23:21:24.724Z,21.20
2019-02-10T23:24:19.211Z,21.20
2019-02-10T23:27:13.255Z,21.20
2019-02-10T23:30:08.644Z,21.20
2019-02-10T23:33:03.198Z,21.20
2019-02-10T23:35:57.440Z,21.20
2019-02-10T23:38:51.503Z,21.20
2019-02-10T23:41:45.886Z,21.20
2019-02-10T23:44:40.245Z,21.20
2019-02-10T23:47:34.445Z,21.20
2019-02-10T23:50:28.962Z,21.20
2019-02-10T23:53:23.285Z,21.20
2019-02-10T23:56:17.717Z,21.20
2019-02-10T23:59:12.213Z,21.20
